createdAt,value
2023-01-04T00:02:02.922Z,99153.94
2023-01-04T00:04:31.048Z,99163.91
2023-01-04T00:06:59.658Z,99173.44
2023-01-04T00:09:28.099Z,99182.41
2023-01-04T00:11:56.171Z,99184.47
2023-01-04T00:14:24.287Z,99198.25
2023-01-04T00:16:52.347Z,99202.72
2023-01-04T00:19:21.949Z,99212.72
2023-01-04T00:21:50.064Z,99221.63
2023-01-04T00:24:18.842Z,99227.38
2023-01-04T00:26:46.993Z,99225.53
2023-01-04T00:29:15.646Z,99219.63
2023-01-04T00:31:46.972Z,99233.06
2023-01-04T00:34:17.026Z,99237.78
2023-01-04T00:36:46.852Z,99213.78
2023-01-04T00:39:17.087Z,99230.00
2023-01-04T00:42:02.949Z,99235.88
2023-01-04T00:44:31.481Z,99248.28
2023-01-04T00:47:00.547Z,99259.66
2023-01-04T00:49:29.609Z,99274.09
2023-01-04T00:51:59.745Z,99278.56
2023-01-04T00:54:27.903Z,99284.28
2023-01-04T00:56:56.176Z,99303.41
2023-01-04T00:59:24.748Z,99312.94
2023-01-04T01:01:53.270Z,99316.59
2023-01-04T01:04:23.697Z,99339.75
2023-01-04T01:06:52.886Z,99336.13
2023-01-04T01:09:24.519Z,99358.25
2023-01-04T01:11:54.097Z,99380.22
2023-01-04T01:14:25.254Z,99381.66
2023-01-04T01:16:57.773Z,99413.34
2023-01-04T01:19:27.983Z,99411.28
2023-01-04T01:21:57.353Z,99409.91
2023-01-04T01:24:27.879Z,99444.41
2023-01-04T01:26:56.044Z,99446.06
2023-01-04T01:29:24.494Z,99458.47
2023-01-04T01:31:52.899Z,99467.41
2023-01-04T01:34:21.302Z,99483.25
2023-01-04T01:36:49.500Z,99496.63
2023-01-04T01:39:17.777Z,99505.00
2023-01-04T01:41:47.505Z,99519.22
2023-01-04T01:45:06.919Z,99515.75
2023-01-04T01:47:41.397Z,99530.41
2023-01-04T01:50:20.285Z,99563.88
2023-01-04T01:52:50.012Z,99560.66
2023-01-04T01:55:18.417Z,99579.53
2023-01-04T01:57:51.867Z,99579.75
2023-01-04T02:00:20.052Z,99595.78
2023-01-04T02:02:55.211Z,99610.59
2023-01-04T02:05:23.782Z,99623.81
2023-01-04T02:07:52.248Z,99604.72
2023-01-04T02:10:20.936Z,99658.72
2023-01-04T02:12:52.729Z,99650.59
2023-01-04T02:15:24.772Z,99647.97
2023-01-04T02:18:00.702Z,99655.88
2023-01-04T02:20:40.128Z,99653.84
2023-01-04T02:23:45.307Z,99663.97
2023-01-04T02:27:01.129Z,99666.81
2023-01-04T02:30:07.543Z,99653.41
2023-01-04T02:32:56.497Z,99672.50
2023-01-04T02:35:31.260Z,99674.31
2023-01-04T02:38:08.435Z,99670.03
2023-01-04T02:40:47.092Z,99659.31
2023-01-04T02:43:39.265Z,99665.78
2023-01-04T02:46:12.374Z,99677.16
2023-01-04T02:48:59.962Z,99680.00
2023-01-04T02:51:31.093Z,99677.75
2023-01-04T02:54:01.752Z,99683.03
2023-01-04T02:56:51.301Z,99682.63
2023-01-04T02:59:50.935Z,99667.63
2023-01-04T03:02:49.290Z,99645.69
2023-01-04T03:05:53.256Z,99653.78
2023-01-04T03:08:31.969Z,99650.56
2023-01-04T03:11:04.865Z,99648.31
2023-01-04T03:13:37.888Z,99644.66
2023-01-04T03:16:12.553Z,99644.88
2023-01-04T03:18:45.668Z,99640.59
2023-01-04T03:21:18.043Z,99655.22
2023-01-04T03:24:04.956Z,99654.19
2023-01-04T03:26:54.170Z,99638.78
2023-01-04T03:29:44.705Z,99621.72
2023-01-04T03:32:35.074Z,99630.44
2023-01-04T03:35:20.913Z,99637.97
2023-01-04T03:38:15.240Z,99627.63
2023-01-04T03:41:05.161Z,99639.19
2023-01-04T03:43:58.511Z,99648.53
2023-01-04T03:46:50.946Z,99674.91
2023-01-04T03:49:26.690Z,99664.97
2023-01-04T03:51:59.467Z,99676.13
2023-01-04T03:54:33.397Z,99684.25
2023-01-04T03:57:02.796Z,99680.22
2023-01-04T03:59:31.145Z,99696.47
2023-01-04T04:01:59.912Z,99706.63
2023-01-04T04:04:45.359Z,99702.16
2023-01-04T04:07:31.013Z,99701.34
2023-01-04T04:10:00.632Z,99705.81
2023-01-04T04:12:29.137Z,99733.03
2023-01-04T04:14:57.594Z,99729.19
2023-01-04T04:17:26.370Z,99742.38
2023-01-04T04:19:54.566Z,99738.34
2023-01-04T04:22:22.741Z,99769.19
2023-01-04T04:24:50.969Z,99763.72
2023-01-04T04:27:20.430Z,99776.91
2023-01-04T04:29:48.718Z,99763.72
2023-01-04T04:32:16.956Z,99782.41
2023-01-04T04:34:45.014Z,99793.56
2023-01-04T04:37:13.193Z,99776.09
2023-01-04T04:39:41.283Z,99803.53
2023-01-04T04:42:09.248Z,99832.56
2023-01-04T04:44:38.966Z,99840.47
2023-01-04T04:47:07.097Z,99824.03
2023-01-04T04:49:35.300Z,99828.91
2023-01-04T04:52:03.602Z,99837.19
2023-01-04T04:54:31.815Z,99846.91
2023-01-04T04:57:00.077Z,99850.38
2023-01-04T04:59:28.229Z,99867.81
2023-01-04T05:01:57.952Z,99873.25
2023-01-04T05:04:26.474Z,99876.31
2023-01-04T05:06:54.890Z,99873.66
2023-01-04T05:09:23.089Z,99880.13
2023-01-04T05:12:10.592Z,99888.44
2023-01-04T05:14:38.825Z,99898.97
2023-01-04T05:17:08.479Z,99903.06
2023-01-04T05:19:36.789Z,99911.13
2023-01-04T05:22:04.967Z,99907.91
2023-01-04T05:24:33.113Z,99909.91
2023-01-04T05:27:01.360Z,99923.28
2023-01-04T05:29:47.051Z,99937.25
2023-01-04T05:32:16.634Z,99934.41
2023-01-04T05:34:45.180Z,99936.63
2023-01-04T05:37:13.623Z,99938.66
2023-01-04T05:39:41.752Z,99955.50
2023-01-04T05:42:32.811Z,99950.38
2023-01-04T05:45:00.938Z,99962.59
2023-01-04T05:47:30.827Z,99964.38
2023-01-04T05:49:59.035Z,99950.59
2023-01-04T05:52:27.624Z,99969.44
2023-01-04T05:54:56.015Z,99964.97
2023-01-04T05:57:24.275Z,99971.91
2023-01-04T05:59:52.462Z,99982.03
2023-01-04T06:02:23.749Z,99986.13
2023-01-04T06:04:58.824Z,99960.94
2023-01-04T06:07:27.598Z,99995.31
2023-01-04T06:09:56.160Z,99997.75
2023-01-04T06:12:24.207Z,99993.47
2023-01-04T06:14:52.607Z,99978.66
2023-01-04T06:17:21.089Z,100003.38
2023-01-04T06:19:49.167Z,99984.09
2023-01-04T06:22:18.771Z,99981.31
2023-01-04T06:24:47.051Z,100003.00
2023-01-04T06:27:15.334Z,100001.59
2023-01-04T06:29:43.532Z,99984.91
2023-01-04T06:32:11.980Z,99994.50
2023-01-04T06:34:40.165Z,99982.91
2023-01-04T06:37:09.936Z,99975.00
2023-01-04T06:39:39.593Z,99979.47
2023-01-04T06:42:28.607Z,99992.84
2023-01-04T06:44:56.842Z,99985.69
2023-01-04T06:47:27.423Z,99985.91
2023-01-04T06:49:55.867Z,99999.47
2023-01-04T06:52:24.132Z,99991.75
2023-01-04T06:54:53.666Z,100002.06
2023-01-04T06:57:21.823Z,99988.28
2023-01-04T06:59:50.023Z,100006.34
2023-01-04T07:02:18.393Z,100012.44
2023-01-04T07:04:46.789Z,100021.56
2023-01-04T07:07:15.016Z,100014.84
2023-01-04T07:09:43.234Z,100011.47
2023-01-04T07:12:12.775Z,100023.19
2023-01-04T07:14:41.006Z,100017.31
2023-01-04T07:17:09.274Z,100021.13
2023-01-04T07:19:37.413Z,100028.66
2023-01-04T07:22:05.540Z,100030.28
2023-01-04T07:24:33.698Z,100035.56
2023-01-04T07:27:02.115Z,100028.66
2023-01-04T07:29:31.659Z,100030.66
2023-01-04T07:31:59.776Z,100024.97
2023-01-04T07:34:28.538Z,100041.63
2023-01-04T07:36:56.801Z,100057.44
2023-01-04T07:39:25.048Z,100049.94
2023-01-04T07:41:53.389Z,100046.88
2023-01-04T07:44:21.979Z,100044.41
2023-01-04T07:46:51.578Z,100070.63
2023-01-04T07:49:19.904Z,100055.41
2023-01-04T07:51:49.166Z,100064.59
2023-01-04T07:54:18.256Z,100057.44
2023-01-04T07:56:47.486Z,100062.88
2023-01-04T07:59:17.645Z,100061.25
2023-01-04T08:01:46.423Z,100055.78
2023-01-04T08:04:17.349Z,100065.72
2023-01-04T08:06:47.361Z,100066.09
2023-01-04T08:09:15.582Z,100066.72
2023-01-04T08:11:43.681Z,100058.16
2023-01-04T08:14:12.567Z,100059.19
2023-01-04T08:16:43.734Z,100069.72
2023-01-04T08:19:17.729Z,100074.56
2023-01-04T08:21:46.668Z,100073.00
2023-01-04T08:24:16.899Z,100076.63
2023-01-04T08:26:45.661Z,100070.38
2023-01-04T08:29:14.440Z,100085.81
2023-01-04T08:31:42.702Z,100083.16
2023-01-04T08:34:11.301Z,100097.00
2023-01-04T08:36:48.712Z,100107.72
2023-01-04T08:39:16.965Z,100105.28
2023-01-04T08:42:09.960Z,100131.03
2023-01-04T08:44:42.181Z,100119.47
2023-01-04T08:47:10.514Z,100126.13
2023-01-04T08:49:38.649Z,100114.41
2023-01-04T08:52:09.354Z,100127.13
2023-01-04T08:54:37.637Z,100139.66
2023-01-04T08:57:06.292Z,100141.50
2023-01-04T08:59:34.427Z,100147.03
2023-01-04T09:02:05.758Z,100147.47
2023-01-04T09:04:34.562Z,100149.56
2023-01-04T09:07:02.835Z,100167.00
2023-01-04T09:09:32.469Z,100162.53
2023-01-04T09:12:00.754Z,100172.72
2023-01-04T09:14:29.018Z,100175.97
2023-01-04T09:16:57.351Z,100183.72
2023-01-04T09:19:25.521Z,100186.16
2023-01-04T09:21:53.820Z,100189.38
2023-01-04T09:24:22.147Z,100179.63
2023-01-04T09:26:51.775Z,100182.91
2023-01-04T09:29:19.986Z,100189.00
2023-01-04T09:31:48.398Z,100192.47
2023-01-04T09:34:18.028Z,100213.91
2023-01-04T09:36:47.349Z,100216.19
2023-01-04T09:39:22.433Z,100210.56
2023-01-04T09:41:58.256Z,100227.22
2023-01-04T09:45:21.474Z,100227.00
2023-01-04T09:47:35.754Z,100226.38
2023-01-04T09:50:07.950Z,100228.47
2023-01-04T09:52:47.780Z,100231.53
2023-01-04T09:55:37.850Z,100221.44
2023-01-04T09:58:20.708Z,100216.53
2023-01-04T10:00:52.670Z,100216.72
2023-01-04T10:03:26.141Z,100233.44
2023-01-04T10:05:56.473Z,100235.69
2023-01-04T10:08:25.299Z,100222.91
2023-01-04T10:11:09.210Z,100234.88
2023-01-04T10:13:56.621Z,100229.81
2023-01-04T10:22:39.519Z,100248.97
2023-01-04T10:25:25.049Z,100263.00
2023-01-04T10:28:06.096Z,100259.41
2023-01-04T10:30:43.616Z,100260.88
2023-01-04T10:33:15.054Z,100262.78
2023-01-04T10:35:46.114Z,100270.34
2023-01-04T10:38:18.143Z,100304.72
2023-01-04T10:40:48.897Z,100289.50
2023-01-04T10:43:30.840Z,100317.59
2023-01-04T10:46:23.682Z,100309.94
2023-01-04T10:48:56.425Z,100332.47
2023-01-04T10:51:31.637Z,100323.94
2023-01-04T10:54:06.312Z,100342.47
2023-01-04T10:56:39.440Z,100352.34
2023-01-04T10:59:14.691Z,100353.63
2023-01-04T11:01:51.500Z,100358.69
2023-01-04T11:04:25.089Z,100379.47
2023-01-04T11:06:58.056Z,100373.38
2023-01-04T11:09:34.528Z,100372.38
2023-01-04T11:12:04.035Z,100377.50
2023-01-04T11:14:37.236Z,100390.09
2023-01-04T11:17:10.832Z,100383.31
2023-01-04T11:19:40.437Z,100381.72
2023-01-04T11:22:17.226Z,100388.44
2023-01-04T11:25:32.575Z,100397.47
2023-01-04T11:27:43.430Z,100390.72
2023-01-04T11:30:18.577Z,100403.81
2023-01-04T11:32:55.134Z,100424.16
2023-01-04T11:35:42.728Z,100422.44
2023-01-04T11:38:14.732Z,100417.09
2023-01-04T11:40:43.320Z,100401.81
2023-01-04T11:43:19.864Z,100428.41
2023-01-04T11:46:06.034Z,100419.75
2023-01-04T11:48:41.531Z,100423.47
2023-01-04T11:51:22.620Z,100440.50
2023-01-04T11:53:59.374Z,100428.34
2023-01-04T11:56:29.464Z,100442.25
2023-01-04T11:59:07.339Z,100443.75
2023-01-04T12:01:38.181Z,100454.78
2023-01-04T12:04:12.598Z,100431.25
2023-01-04T12:06:45.353Z,100448.50
2023-01-04T12:09:16.142Z,100453.81
2023-01-04T12:11:50.042Z,100448.50
2023-01-04T12:14:27.916Z,100461.97
2023-01-04T12:17:05.603Z,100461.16
2023-01-04T12:19:36.761Z,100469.50
2023-01-04T12:22:18.611Z,100490.44
2023-01-04T12:24:48.186Z,100510.97
2023-01-04T12:27:17.747Z,100489.72
2023-01-04T12:29:55.595Z,100487.03
2023-01-04T12:32:46.234Z,100492.25
2023-01-04T12:35:59.544Z,100491.91
2023-01-04T12:39:01.036Z,100470.72
2023-01-04T12:42:22.252Z,100481.00
2023-01-04T12:45:22.130Z,100490.78
2023-01-04T12:48:11.932Z,100475.16
2023-01-04T12:51:31.765Z,100486.72
2023-01-04T12:54:05.703Z,100481.06
2023-01-04T12:57:24.936Z,100499.56
2023-01-04T12:59:58.379Z,100500.66
2023-01-04T13:02:27.799Z,100512.22
2023-01-04T13:05:25.728Z,100515.69
2023-01-04T13:07:47.915Z,100523.72
2023-01-04T13:10:33.609Z,100536.75
2023-01-04T13:13:22.548Z,100528.44
2023-01-04T13:16:03.348Z,100508.38
2023-01-04T13:18:37.978Z,100501.75
2023-01-04T13:21:12.999Z,100505.88
2023-01-04T13:23:47.068Z,100522.97
2023-01-04T13:26:50.367Z,100516.88
2023-01-04T13:29:21.786Z,100533.13
2023-01-04T13:32:01.506Z,100531.41
2023-01-04T13:34:33.425Z,100543.06
2023-01-04T13:37:09.200Z,100562.31
2023-01-04T13:39:39.461Z,100573.91
2023-01-04T13:42:17.530Z,100559.63
2023-01-04T13:45:21.596Z,100571.28
2023-01-04T13:47:53.345Z,100596.88
2023-01-04T13:50:28.676Z,100605.56
2023-01-04T13:53:06.408Z,100598.63
2023-01-04T13:55:37.851Z,100569.75
2023-01-04T13:58:16.402Z,100578.84
2023-01-04T14:00:47.096Z,100596.34
2023-01-04T14:03:41.675Z,100597.00
2023-01-04T14:06:16.225Z,100594.97
2023-01-04T14:08:50.848Z,100604.28
2023-01-04T14:11:41.165Z,100612.03
2023-01-04T14:14:33.678Z,100621.22
2023-01-04T14:17:17.435Z,100624.06
2023-01-04T14:19:49.071Z,100618.59
2023-01-04T14:22:28.108Z,100630.44
2023-01-04T14:25:08.515Z,100626.97
2023-01-04T14:27:39.363Z,100646.75
2023-01-04T14:30:25.114Z,100644.94
2023-01-04T14:32:58.139Z,100663.97
2023-01-04T14:35:27.619Z,100650.22
2023-01-04T14:37:56.116Z,100643.38
2023-01-04T14:40:27.132Z,100646.84
2023-01-04T14:42:55.884Z,100661.06
2023-01-04T14:45:25.663Z,100661.88
2023-01-04T14:47:53.933Z,100671.44
2023-01-04T14:50:21.960Z,100673.91
2023-01-04T14:52:52.688Z,100665.72
2023-01-04T14:55:23.449Z,100682.84
2023-01-04T14:57:51.806Z,100682.59
2023-01-04T15:00:20.399Z,100681.31
2023-01-04T15:02:52.095Z,100685.03
2023-01-04T15:05:20.817Z,100684.91
2023-01-04T15:07:49.235Z,100695.69
2023-01-04T15:10:23.060Z,100695.34
2023-01-04T15:12:51.696Z,100703.72
2023-01-04T15:15:20.230Z,100711.19
2023-01-04T15:17:50.385Z,100721.56
2023-01-04T15:20:18.802Z,100735.13
2023-01-04T15:22:46.912Z,100720.13
2023-01-04T15:25:16.664Z,100720.13
2023-01-04T15:27:44.877Z,100732.13
2023-01-04T15:30:14.468Z,100728.88
2023-01-04T15:32:45.311Z,100741.91
2023-01-04T15:35:17.183Z,100747.72
2023-01-04T15:37:50.629Z,100733.16
2023-01-04T15:40:19.760Z,100747.38
2023-01-04T15:42:59.943Z,100741.44
2023-01-04T15:45:29.311Z,100737.78
2023-01-04T15:48:03.307Z,100729.50
2023-01-04T15:50:36.141Z,100749.00
2023-01-04T15:53:04.313Z,100737.97
2023-01-04T15:55:36.251Z,100747.72
2023-01-04T15:58:04.720Z,100745.13
2023-01-04T16:00:32.973Z,100759.72
2023-01-04T16:03:01.377Z,100748.16
2023-01-04T16:05:29.629Z,100751.78
2023-01-04T16:07:59.190Z,100751.66
2023-01-04T16:10:27.909Z,100752.38
2023-01-04T16:12:57.127Z,100752.69
2023-01-04T16:15:25.546Z,100739.22
2023-01-04T16:17:53.613Z,100737.72
2023-01-04T16:20:21.855Z,100739.25
2023-01-04T16:22:49.987Z,100745.22
2023-01-04T16:25:20.962Z,100736.44
2023-01-04T16:27:49.464Z,100743.91
2023-01-04T16:30:18.384Z,100741.91
2023-01-04T16:32:46.506Z,100726.72
2023-01-04T16:35:14.754Z,100722.88
2023-01-04T16:37:43.150Z,100716.16
2023-01-04T16:40:12.525Z,100718.56
2023-01-04T16:42:43.064Z,100723.00
2023-01-04T16:45:12.057Z,100717.09
2023-01-04T16:47:42.233Z,100732.34
2023-01-04T16:50:11.305Z,100722.78
2023-01-04T16:52:39.997Z,100713.88
2023-01-04T16:55:09.188Z,100726.88
2023-01-04T16:57:37.247Z,100730.34
2023-01-04T17:00:08.165Z,100720.78
2023-01-04T17:02:36.412Z,100723.59
2023-01-04T17:05:04.880Z,100724.44
2023-01-04T17:07:33.633Z,100713.38
2023-01-04T17:10:02.058Z,100719.16
2023-01-04T17:12:47.957Z,100714.06
2023-01-04T17:18:06.787Z,100709.59
2023-01-04T17:20:37.949Z,100706.13
2023-01-04T17:23:06.115Z,100711.56
2023-01-04T17:25:34.579Z,100707.91
2023-01-04T17:28:02.738Z,100708.09
2023-01-04T17:30:32.252Z,100707.59
2023-01-04T17:33:00.556Z,100710.44
2023-01-04T17:35:28.813Z,100717.88
2023-01-04T17:37:57.058Z,100718.88
2023-01-04T17:40:25.166Z,100720.50
2023-01-04T17:42:53.424Z,100717.72
2023-01-04T17:45:21.817Z,100698.38
2023-01-04T17:47:52.502Z,100714.41
2023-01-04T17:50:22.201Z,100726.59
2023-01-04T17:52:51.336Z,100719.69
2023-01-04T17:55:19.973Z,100725.50
2023-01-04T17:57:48.221Z,100720.59
2023-01-04T18:00:16.828Z,100735.75
2023-01-04T18:02:45.389Z,100737.75
2023-01-04T18:05:15.147Z,100752.94
2023-01-04T18:07:43.318Z,100758.56
2023-01-04T18:10:26.766Z,100752.28
2023-01-04T18:13:03.181Z,100745.84
2023-01-04T18:15:31.438Z,100758.06
2023-01-04T18:17:59.599Z,100752.41
2023-01-04T18:20:29.180Z,100754.53
2023-01-04T18:22:57.461Z,100756.00
2023-01-04T18:25:25.951Z,100758.47
2023-01-04T18:27:54.401Z,100757.47
2023-01-04T18:30:22.589Z,100749.91
2023-01-04T18:32:50.968Z,100748.25
2023-01-04T18:35:19.195Z,100763.13
2023-01-04T18:37:48.874Z,100791.47
2023-01-04T18:40:17.012Z,100768.72
2023-01-04T18:42:48.783Z,100773.31
2023-01-04T18:45:17.929Z,100783.84
2023-01-04T18:47:47.653Z,100796.25
2023-01-04T18:50:16.155Z,100804.63
2023-01-04T18:52:44.403Z,100803.97
2023-01-04T18:55:14.068Z,100806.69
2023-01-04T18:57:42.205Z,100814.72
2023-01-04T19:00:11.975Z,100815.53
2023-01-04T19:02:40.474Z,100837.03
2023-01-04T19:05:09.213Z,100828.44
2023-01-04T19:07:39.509Z,100831.44
2023-01-04T19:10:08.848Z,100823.19
2023-01-04T19:12:39.163Z,100845.81
2023-01-04T19:15:09.324Z,100814.53
2023-01-04T19:17:37.726Z,100823.44
2023-01-04T19:20:06.839Z,100817.69
2023-01-04T19:22:35.829Z,100833.34
2023-01-04T19:25:04.057Z,100834.84
2023-01-04T19:27:32.199Z,100832.22
2023-01-04T19:30:01.850Z,100835.66
2023-01-04T19:32:33.434Z,100850.31
2023-01-04T19:35:02.047Z,100839.75
2023-01-04T19:37:30.734Z,100839.78
2023-01-04T19:39:59.286Z,100849.38
2023-01-04T19:42:27.418Z,100858.28
2023-01-04T19:44:55.566Z,100847.72
2023-01-04T19:47:25.554Z,100868.50
2023-01-04T19:49:53.842Z,100854.63
2023-01-04T19:52:22.040Z,100881.50
2023-01-04T19:54:50.241Z,100882.34
2023-01-04T19:57:18.389Z,100889.63
2023-01-04T19:59:46.980Z,100883.03
2023-01-04T20:02:15.405Z,100892.94
2023-01-04T20:04:45.191Z,100890.44
2023-01-04T20:07:13.425Z,100900.84
2023-01-04T20:09:41.618Z,100900.19
2023-01-04T20:12:11.116Z,100899.34
2023-01-04T20:14:39.496Z,100908.09
2023-01-04T20:17:08.025Z,100911.06
2023-01-04T20:19:36.247Z,100906.78
2023-01-04T20:22:06.246Z,100911.41
2023-01-04T20:24:34.729Z,100900.53
2023-01-04T20:27:02.876Z,100914.72
2023-01-04T20:29:31.128Z,100936.63
2023-01-04T20:32:00.813Z,100927.22
2023-01-04T20:34:29.376Z,100930.19
2023-01-04T20:36:57.778Z,100930.84
2023-01-04T20:39:27.368Z,100938.09
2023-01-04T20:42:13.167Z,100926.22
2023-01-04T20:44:41.250Z,100930.50
2023-01-04T20:47:09.529Z,100934.16
2023-01-04T20:49:37.735Z,100941.06
2023-01-04T20:52:06.315Z,100941.06
2023-01-04T20:54:36.304Z,100946.66
2023-01-04T20:57:04.450Z,100947.00
2023-01-04T20:59:34.846Z,100955.25
2023-01-04T21:02:03.798Z,100956.56
2023-01-04T21:04:32.339Z,100951.28
2023-01-04T21:07:00.471Z,100961.84
2023-01-04T21:09:28.890Z,100966.09
2023-01-04T21:12:03.363Z,100966.28
2023-01-04T21:14:38.160Z,100977.16
2023-01-04T21:17:06.906Z,100978.81
2023-01-04T21:19:35.287Z,100979.97
2023-01-04T21:22:04.240Z,100990.69
2023-01-04T21:24:33.357Z,101001.56
2023-01-04T21:27:03.068Z,100998.75
2023-01-04T21:29:31.711Z,101004.19
2023-01-04T21:32:00.229Z,101014.72
2023-01-04T21:34:31.671Z,101003.38
2023-01-04T21:36:59.831Z,100997.44
2023-01-04T21:39:28.328Z,100995.47
2023-01-04T21:41:56.628Z,100994.81
2023-01-04T21:44:26.769Z,100994.97
2023-01-04T21:46:55.432Z,101005.53
2023-01-04T21:49:23.635Z,101008.81
2023-01-04T21:51:51.759Z,101003.84
2023-01-04T21:54:19.963Z,101014.06
2023-01-04T21:56:50.369Z,101009.31
2023-01-04T21:59:18.621Z,101006.00
2023-01-04T22:01:48.439Z,101011.13
2023-01-04T22:04:16.733Z,101012.75
2023-01-04T22:06:44.877Z,101013.94
2023-01-04T22:09:13.122Z,101013.09
2023-01-04T22:11:43.432Z,101012.59
2023-01-04T22:14:11.692Z,101015.25
2023-01-04T22:16:40.978Z,101018.06
2023-01-04T22:19:14.006Z,101015.56
2023-01-04T22:21:42.945Z,101011.09
2023-01-04T22:24:12.721Z,101022.66
2023-01-04T22:26:41.388Z,101022.97
2023-01-04T22:29:10.005Z,101027.28
2023-01-04T22:31:38.954Z,101033.38
2023-01-04T22:34:07.344Z,101041.41
2023-01-04T22:36:36.937Z,101047.53
2023-01-04T22:39:06.091Z,101043.91
2023-01-04T22:41:34.475Z,101049.69
2023-01-04T22:44:04.733Z,101043.06
2023-01-04T22:46:34.091Z,101062.03
2023-01-04T22:49:02.742Z,101048.22
2023-01-04T22:51:32.405Z,101069.13
2023-01-04T22:54:05.807Z,101073.28
2023-01-04T22:56:34.144Z,101075.56
2023-01-04T22:59:02.348Z,101075.06
2023-01-04T23:01:32.725Z,101085.97
2023-01-04T23:04:02.760Z,101093.22
2023-01-04T23:06:33.149Z,101099.00
2023-01-04T23:09:05.400Z,101109.22
2023-01-04T23:11:34.978Z,101098.50
2023-01-04T23:14:03.683Z,101097.66
2023-01-04T23:16:33.662Z,101102.28
2023-01-04T23:19:02.238Z,101098.00
2023-01-04T23:21:31.142Z,101100.66
2023-01-04T23:24:00.025Z,101100.66
2023-01-04T23:26:31.124Z,101103.47
2023-01-04T23:28:59.514Z,101113.16
2023-01-04T23:31:30.004Z,101114.84
2023-01-04T23:33:59.949Z,101108.56
2023-01-04T23:36:30.305Z,101102.94
2023-01-04T23:39:00.108Z,101109.34
2023-01-04T23:41:43.625Z,101097.16
2023-01-04T23:44:13.526Z,101093.88
2023-01-04T23:46:41.776Z,101082.81
2023-01-04T23:49:10.142Z,101091.72
2023-01-04T23:51:38.671Z,101087.59
2023-01-04T23:54:08.469Z,101086.78
2023-01-04T23:56:38.705Z,101092.03
